Terminal Aerodrome Forecast
Issued by NWS Quad Cities IA IL

Home | Current Version | Previous Version | Text Only | Print | Product List | Glossary On
Versions: 1 2 3 4 5 6 7 8 9 10 11 12 13 14 15 16 17 18 19 20 21
024
FTUS43 KDVN 060545
TAFMLI
TAF
KMLI 060545Z 0606/0706 18004KT P6SM OVC040
     FM061400 22006KT P6SM SCT015 BKN025
     FM062000 23009KT P6SM SCT025 BKN150=

USA.gov is the U.S. government's official web portal to all federal, state and local government web resources and services.